This is the latest recevied weather packets stored in our database for station/object SP2NBH-2. If no packets are shown the sender has not sent any weather packets the latest 10 day(s).
| Time | Temp. | Humidity | Pressure | Rain* | Wind** | Luminosity | Snow |
|---|---|---|---|---|---|---|---|
| 1777938684 | 10° C | 74% | 1013 hPa | - | - | - | - |
| 1777937784 | 9.44° C | 74% | 1013.1 hPa | - | - | - | - |
| 1777936884 | 10° C | 73% | 1013.1 hPa | - | - | - | - |
| 1777935984 | 10° C | 73% | 1013.3 hPa | - | - | - | - |
| 1777935084 | 10° C | 73% | 1013.3 hPa | - | - | - | - |
| 1777934184 | 11.11° C | 72% | 1013.3 hPa | - | - | - | - |
| 1777933284 | 11.11° C | 72% | 1013.5 hPa | - | - | - | - |
| 1777932383 | 11.11° C | 73% | 1013.5 hPa | - | - | - | - |
| 1777931483 | 11.11° C | 74% | 1013.6 hPa | - | - | - | - |
| 1777930584 | 11.67° C | 74% | 1013.6 hPa | - | - | - | - |
| 1777929683 | 11.67° C | 69% | 1013.5 hPa | - | - | - | - |
| 1777928783 | 11.67° C | 69% | 1013.5 hPa | - | - | - | - |
| 1777927883 | 11.67° C | 69% | 1013.6 hPa | - | - | - | - |
| 1777926983 | 11.67° C | 70% | 1013.5 hPa | - | - | - | - |
| 1777926083 | 12.22° C | 69% | 1013.3 hPa | - | - | - | - |
| 1777925183 | 12.22° C | 69% | 1013.3 hPa | - | - | - | - |
| 1777924283 | 12.78° C | 69% | 1013.3 hPa | - | - | - | - |
| 1777923383 | 12.78° C | 68% | 1013.2 hPa | - | - | - | - |
| 1777922483 | 13.33° C | 67% | 1013.3 hPa | - | - | - | - |
| 1777921582 | 13.33° C | 66% | 1013.2 hPa | - | - | - | - |
| 1777920682 | 13.33° C | 65% | 1013.1 hPa | - | - | - | - |
| 1777919782 | 13.89° C | 65% | 1013 hPa | - | - | - | - |
| 1777918881 | 15° C | 64% | 1012.9 hPa | - | - | - | - |
| 1777917176 | 15.56° C | 60% | 1012.6 hPa | - | - | - | - |
| 1777916276 | 16.67° C | 57% | 1012.5 hPa | - | - | - | - |
* Rain since midnight (hover to see other rain measurements)
** Current wind speed in m/s (hover to see current wind gust speed)